Time;durP1;ratioP1;P1;durP2;ratioP2;P2;SDS_P1;SDS_P2;PMS_P1;PMS_P2;Temp;Humidity;BMP_temperature;BMP_pressure;BME280_temperature;BME280_humidity;BME280_pressure;Samples;Min_cycle;Max_cycle;Signal;HPM_P1;HPM_P2
2022/08/15 00:00:09;;;;;;;7.00;6.40;;;;;;;;;;6273527;22;20148;-70
2022/08/15 00:02:35;;;;;;;7.60;6.88;;;;;;;;;;6272766;22;20152;-70
2022/08/15 00:05:01;;;;;;;6.90;6.40;;;;;;;;;;6272757;22;20149;-70
2022/08/15 00:07:26;;;;;;;7.00;6.30;;;;;;;;;;6273631;22;20388;-70
2022/08/15 00:09:51;;;;;;;7.45;6.70;;;;;;;;;;6273643;22;20616;-70
2022/08/15 00:12:17;;;;;;;7.40;6.80;;;;;;;;;;6274476;22;20223;-70
2022/08/15 00:14:42;;;;;;;7.53;6.82;;;;;;;;;;6272609;22;20848;-70
2022/08/15 00:17:09;;;;;;;7.40;6.57;;;;;;;;;;6273152;22;20161;-72
2022/08/15 00:19:35;;;;;;;6.95;6.25;;;;;;;;;;6272803;22;20227;-70
2022/08/15 00:22:04;;;;;;;7.05;6.40;;;;;;;;;;6271521;22;20179;-70
2022/08/15 00:24:31;;;;;;;7.90;7.03;;;;;;;;;;6273208;22;20217;-70
2022/08/15 00:26:57;;;;;;;7.30;6.60;;;;;;;;;;6273899;22;20518;-70
2022/08/15 00:29:23;;;;;;;6.82;6.32;;;;;;;;;;6274223;22;20149;-71
2022/08/15 00:31:51;;;;;;;6.72;6.22;;;;;;;;;;6273486;22;20234;-70
2022/08/15 00:34:16;;;;;;;7.43;6.82;;;;;;;;;;6274208;22;20145;-70
2022/08/15 00:36:42;;;;;;;7.15;6.55;;;;;;;;;;6274128;22;20644;-71
2022/08/15 00:39:08;;;;;;;6.57;6.07;;;;;;;;;;6272898;22;20148;-71
2022/08/15 00:41:39;;;;;;;7.18;6.43;;;;;;;;;;6272737;22;20239;-71
2022/08/15 00:44:07;;;;;;;9.18;7.10;;;;;;;;;;6273239;22;20125;-70
2022/08/15 00:46:33;;;;;;;14.57;7.88;;;;;;;;;;6273502;22;20235;-76
2022/08/15 00:48:58;;;;;;;13.77;7.75;;;;;;;;;;6273790;22;20535;-75
2022/08/15 00:51:32;;;;;;;11.07;7.80;;;;;;;;;;6272972;22;20616;-75
2022/08/15 00:54:02;;;;;;;9.05;7.93;;;;;;;;;;6272209;22;20154;-75
2022/08/15 00:56:29;;;;;;;8.70;7.80;;;;;;;;;;6272267;22;20152;-75
2022/08/15 00:58:55;;;;;;;9.93;8.13;;;;;;;;;;6273083;22;20370;-75
2022/08/15 01:01:21;;;;;;;9.18;8.38;;;;;;;;;;6271203;22;20191;-75
2022/08/15 01:03:47;;;;;;;9.90;8.40;;;;;;;;;;6270325;22;20175;-75
2022/08/15 01:06:13;;;;;;;8.77;7.93;;;;;;;;;;6273412;22;20145;-75
2022/08/15 01:08:41;;;;;;;8.90;8.10;;;;;;;;;;6273675;22;20233;-74
2022/08/15 01:11:09;;;;;;;10.38;9.27;;;;;;;;;;6273008;22;20195;-74
2022/08/15 01:13:34;;;;;;;9.63;8.73;;;;;;;;;;6298503;22;20232;-74
2022/08/15 01:15:59;;;;;;;9.90;9.10;;;;;;;;;;6274304;22;20172;-74
2022/08/15 01:18:25;;;;;;;11.10;9.98;;;;;;;;;;6273212;22;20164;-73
2022/08/15 01:20:51;;;;;;;12.48;11.38;;;;;;;;;;6272731;22;20148;-74
2022/08/15 01:23:25;;;;;;;12.25;11.00;;;;;;;;;;6272770;22;20975;-74
2022/08/15 01:25:53;;;;;;;11.73;10.75;;;;;;;;;;6273616;22;20273;-74
2022/08/15 01:28:25;;;;;;;11.23;10.23;;;;;;;;;;6273595;22;20172;-73
2022/08/15 01:30:58;;;;;;;11.05;9.95;;;;;;;;;;6273673;22;20217;-74
2022/08/15 01:33:25;;;;;;;11.45;10.45;;;;;;;;;;6273671;22;20147;-74
2022/08/15 01:35:51;;;;;;;12.38;11.18;;;;;;;;;;6273374;22;20155;-74
2022/08/15 01:38:30;;;;;;;11.70;10.63;;;;;;;;;;6272781;22;20184;-74
2022/08/15 01:41:06;;;;;;;16.80;12.10;;;;;;;;;;6273144;22;20140;-74
2022/08/15 01:43:33;;;;;;;11.18;10.15;;;;;;;;;;6272100;22;20175;-74
2022/08/15 01:46:02;;;;;;;11.15;10.25;;;;;;;;;;6273221;22;20145;-74
2022/08/15 01:48:30;;;;;;;12.10;11.10;;;;;;;;;;6271999;22;20172;-74
2022/08/15 01:50:58;;;;;;;13.88;12.57;;;;;;;;;;6270285;22;20639;-74
2022/08/15 01:53:32;;;;;;;11.88;10.88;;;;;;;;;;6273310;22;20496;-74
2022/08/15 01:55:57;;;;;;;12.82;11.75;;;;;;;;;;6273259;22;20172;-74
2022/08/15 01:58:23;;;;;;;13.63;12.43;;;;;;;;;;6273420;22;20176;-74
2022/08/15 02:00:50;;;;;;;12.93;11.82;;;;;;;;;;6272366;22;20365;-74
2022/08/15 02:03:15;;;;;;;12.23;11.27;;;;;;;;;;6272358;22;20148;-74
2022/08/15 02:05:41;;;;;;;13.55;12.30;;;;;;;;;;6272987;22;20225;-74
2022/08/15 02:08:06;;;;;;;14.30;12.90;;;;;;;;;;6274143;22;20176;-74
2022/08/15 02:10:31;;;;;;;14.87;13.37;;;;;;;;;;6273386;22;20881;-73
2022/08/15 02:12:56;;;;;;;14.85;13.43;;;;;;;;;;6273538;22;20464;-73
2022/08/15 02:15:22;;;;;;;14.77;13.37;;;;;;;;;;6271571;22;20176;-74
2022/08/15 02:17:48;;;;;;;16.10;14.65;;;;;;;;;;6273374;22;20404;-73
2022/08/15 02:20:14;;;;;;;15.75;14.35;;;;;;;;;;6273524;22;20228;-73
2022/08/15 02:22:39;;;;;;;15.30;13.90;;;;;;;;;;6273990;22;20207;-73
2022/08/15 02:25:06;;;;;;;17.38;15.88;;;;;;;;;;6274694;22;20650;-74
2022/08/15 02:27:33;;;;;;;18.08;16.38;;;;;;;;;;6273139;22;20179;-73
2022/08/15 02:30:05;;;;;;;17.92;16.10;;;;;;;;;;6273530;22;20564;-73
2022/08/15 02:32:30;;;;;;;17.88;16.10;;;;;;;;;;6274360;22;20151;-73
2022/08/15 02:34:55;;;;;;;18.52;16.92;;;;;;;;;;6275394;22;20255;-73
2022/08/15 02:37:20;;;;;;;18.60;16.97;;;;;;;;;;6274513;22;20646;-73
2022/08/15 02:39:46;;;;;;;18.80;17.10;;;;;;;;;;6275332;22;20354;-73
2022/08/15 02:42:12;;;;;;;19.60;17.50;;;;;;;;;;6274664;22;20901;-73
2022/08/15 02:44:37;;;;;;;18.08;16.38;;;;;;;;;;6274911;22;20194;-73
2022/08/15 02:47:03;;;;;;;18.33;16.53;;;;;;;;;;6274277;22;20172;-73
2022/08/15 02:49:28;;;;;;;18.10;16.33;;;;;;;;;;6274088;22;20365;-73
2022/08/15 02:51:54;;;;;;;17.85;16.25;;;;;;;;;;6273494;22;20149;-73
2022/08/15 02:54:21;;;;;;;17.25;15.55;;;;;;;;;;6275342;22;20140;-73
2022/08/15 02:56:46;;;;;;;16.63;14.95;;;;;;;;;;6272558;22;20511;-73
2022/08/15 02:59:11;;;;;;;17.65;15.95;;;;;;;;;;6274009;22;20237;-73
2022/08/15 03:01:40;;;;;;;17.25;15.65;;;;;;;;;;6274717;22;20180;-73
2022/08/15 03:04:07;;;;;;;15.95;14.52;;;;;;;;;;6274329;22;20155;-73
2022/08/15 03:06:32;;;;;;;15.80;14.32;;;;;;;;;;6274580;22;20168;-73
2022/08/15 03:09:00;;;;;;;16.52;15.02;;;;;;;;;;6275430;22;20611;-73
2022/08/15 03:11:26;;;;;;;17.45;15.73;;;;;;;;;;6272117;22;20180;-73
2022/08/15 03:13:51;;;;;;;16.33;14.68;;;;;;;;;;6274591;22;20155;-73
2022/08/15 03:16:16;;;;;;;17.10;15.50;;;;;;;;;;6275501;22;20223;-73
2022/08/15 03:18:42;;;;;;;16.73;15.00;;;;;;;;;;6274243;22;20167;-73
2022/08/15 03:21:09;;;;;;;15.27;13.98;;;;;;;;;;6274441;22;20149;-73
2022/08/15 03:23:34;;;;;;;16.27;14.73;;;;;;;;;;6275042;22;20156;-73
2022/08/15 03:26:01;;;;;;;16.38;14.75;;;;;;;;;;6274739;22;20568;-73
2022/08/15 03:28:31;;;;;;;14.57;13.15;;;;;;;;;;6273959;22;20169;-73
2022/08/15 03:30:58;;;;;;;15.02;13.68;;;;;;;;;;6273417;22;20503;-74
2022/08/15 03:33:23;;;;;;;13.00;11.85;;;;;;;;;;6273855;22;20601;-73
2022/08/15 03:35:50;;;;;;;13.07;11.70;;;;;;;;;;6274219;22;20172;-73
2022/08/15 03:38:15;;;;;;;14.63;11.45;;;;;;;;;;6272442;22;20360;-73
2022/08/15 03:40:41;;;;;;;13.48;12.07;;;;;;;;;;6273940;22;20194;-73
2022/08/15 03:43:09;;;;;;;13.43;12.13;;;;;;;;;;6274335;22;20149;-73
2022/08/15 03:45:34;;;;;;;15.40;13.05;;;;;;;;;;6273668;22;20526;-73
2022/08/15 03:48:01;;;;;;;15.55;13.52;;;;;;;;;;6274128;22;20247;-73
2022/08/15 03:50:27;;;;;;;15.05;13.65;;;;;;;;;;6272681;22;20176;-73
2022/08/15 03:52:57;;;;;;;14.95;13.45;;;;;;;;;;6273280;22;20140;-73
2022/08/15 03:55:24;;;;;;;14.50;13.10;;;;;;;;;;6271248;22;20155;-73
2022/08/15 03:57:49;;;;;;;15.75;12.27;;;;;;;;;;6274213;22;20180;-73
2022/08/15 04:00:16;;;;;;;13.20;11.48;;;;;;;;;;6273924;22;20687;-73
2022/08/15 04:02:41;;;;;;;12.80;11.70;;;;;;;;;;6274224;22;20459;-74
2022/08/15 04:05:07;;;;;;;13.00;11.70;;;;;;;;;;6274369;22;20162;-74
2022/08/15 04:07:35;;;;;;;13.30;12.05;;;;;;;;;;6272449;22;20179;-74
2022/08/15 04:10:03;;;;;;;11.32;10.32;;;;;;;;;;6272945;22;20661;-74
2022/08/15 04:12:35;;;;;;;10.20;9.30;;;;;;;;;;6273648;22;20141;-75
2022/08/15 04:15:00;;;;;;;11.45;10.38;;;;;;;;;;6272696;22;20147;-74
2022/08/15 04:17:25;;;;;;;12.80;11.60;;;;;;;;;;6274003;22;20192;-74
2022/08/15 04:19:50;;;;;;;13.57;11.82;;;;;;;;;;6273727;22;20144;-74
2022/08/15 04:22:16;;;;;;;13.30;12.05;;;;;;;;;;6271416;22;20229;-74
2022/08/15 04:24:42;;;;;;;14.30;12.80;;;;;;;;;;6274097;22;20144;-74
2022/08/15 04:27:07;;;;;;;13.20;11.80;;;;;;;;;;6274288;22;20168;-74
2022/08/15 04:29:32;;;;;;;12.97;11.80;;;;;;;;;;6274073;22;20738;-75
2022/08/15 04:31:57;;;;;;;13.27;12.00;;;;;;;;;;6273821;22;20415;-74
2022/08/15 04:34:22;;;;;;;12.70;11.70;;;;;;;;;;6273067;22;20405;-74
2022/08/15 04:36:48;;;;;;;12.52;11.32;;;;;;;;;;6273420;22;20160;-73
2022/08/15 04:39:13;;;;;;;13.10;11.80;;;;;;;;;;6273857;22;20144;-73
2022/08/15 04:41:38;;;;;;;12.25;10.40;;;;;;;;;;6273547;22;20171;-73
2022/08/15 04:44:04;;;;;;;13.25;11.75;;;;;;;;;;6272949;22;20493;-74
2022/08/15 04:46:29;;;;;;;12.95;11.85;;;;;;;;;;6273566;22;20566;-74
2022/08/15 04:48:56;;;;;;;13.25;12.00;;;;;;;;;;6272093;22;20160;-73
2022/08/15 04:51:21;;;;;;;12.65;11.43;;;;;;;;;;6273439;22;20176;-74
2022/08/15 04:53:46;;;;;;;11.10;10.00;;;;;;;;;;6272964;22;20812;-73
2022/08/15 04:56:12;;;;;;;12.38;11.27;;;;;;;;;;6273450;22;20403;-73
2022/08/15 04:58:37;;;;;;;11.85;10.68;;;;;;;;;;6275674;22;20264;-73
2022/08/15 05:01:07;;;;;;;13.30;11.02;;;;;;;;;;6275421;22;20149;-72
2022/08/15 05:03:32;;;;;;;12.27;10.93;;;;;;;;;;6273481;22;20349;-71
2022/08/15 05:05:59;;;;;;;12.13;11.10;;;;;;;;;;6272022;22;20156;-71
2022/08/15 05:08:28;;;;;;;12.25;11.00;;;;;;;;;;6271357;22;20211;-71
2022/08/15 05:10:57;;;;;;;11.85;10.85;;;;;;;;;;6273768;22;20214;-71
2022/08/15 05:13:24;;;;;;;13.75;12.35;;;;;;;;;;6273383;22;20198;-70
2022/08/15 05:15:50;;;;;;;12.93;11.75;;;;;;;;;;6271979;22;20152;-72
2022/08/15 05:18:15;;;;;;;13.48;11.85;;;;;;;;;;6271834;22;20279;-70
2022/08/15 05:20:46;;;;;;;12.77;11.50;;;;;;;;;;6272370;22;20155;-70
2022/08/15 05:23:13;;;;;;;13.02;11.82;;;;;;;;;;6272054;22;20152;-70
2022/08/15 05:25:40;;;;;;;11.50;10.50;;;;;;;;;;6272338;22;20495;-69
2022/08/15 05:28:05;;;;;;;10.82;9.95;;;;;;;;;;6271546;22;20618;-70
2022/08/15 05:30:31;;;;;;;12.73;10.05;;;;;;;;;;6272122;22;20164;-70
2022/08/15 05:33:00;;;;;;;10.75;9.75;;;;;;;;;;6272769;22;20231;-70
2022/08/15 05:35:25;;;;;;;10.98;9.70;;;;;;;;;;6272197;22;20219;-70
2022/08/15 05:37:51;;;;;;;10.60;9.53;;;;;;;;;;6272418;22;20249;-70
2022/08/15 05:40:17;;;;;;;9.05;8.13;;;;;;;;;;6273158;22;20364;-70
2022/08/15 05:42:50;;;;;;;9.10;8.20;;;;;;;;;;6272423;22;20149;-69
2022/08/15 05:45:16;;;;;;;8.57;7.75;;;;;;;;;;6272654;22;20141;-69
2022/08/15 05:47:43;;;;;;;8.15;7.43;;;;;;;;;;6272765;22;20247;-69
2022/08/15 05:50:14;;;;;;;9.95;7.47;;;;;;;;;;6272524;22;20168;-69
2022/08/15 05:52:42;;;;;;;8.07;7.38;;;;;;;;;;6272957;22;20486;-69
2022/08/15 05:55:10;;;;;;;6.45;5.88;;;;;;;;;;6270762;22;20141;-69
2022/08/15 05:57:47;;;;;;;8.65;6.88;;;;;;;;;;6273970;22;20176;-69
2022/08/15 06:00:14;;;;;;;9.00;5.82;;;;;;;;;;6273888;22;20148;-69
2022/08/15 06:02:44;;;;;;;6.63;4.93;;;;;;;;;;6274696;22;20159;-70
2022/08/15 06:05:15;;;;;;;5.40;4.80;;;;;;;;;;6274453;22;20218;-70
2022/08/15 06:07:43;;;;;;;5.60;4.28;;;;;;;;;;6275057;22;20165;-70
2022/08/15 06:10:25;;;;;;;5.47;3.97;;;;;;;;;;6274348;22;20460;-70
2022/08/15 06:12:51;;;;;;;6.60;4.13;;;;;;;;;;6273434;22;20164;-70
2022/08/15 06:15:25;;;;;;;4.57;4.18;;;;;;;;;;6274285;22;20140;-70
2022/08/15 06:17:55;;;;;;;7.00;4.63;;;;;;;;;;6272705;22;20258;-70
2022/08/15 06:20:25;;;;;;;5.82;3.90;;;;;;;;;;6273390;22;20228;-70
2022/08/15 06:22:59;;;;;;;6.55;4.15;;;;;;;;;;6272844;22;20258;-69
2022/08/15 06:25:43;;;;;;;5.30;3.70;;;;;;;;;;6274247;22;20181;-69
2022/08/15 06:28:09;;;;;;;9.88;4.05;;;;;;;;;;6272609;22;20671;-70
2022/08/15 06:30:43;;;;;;;8.30;4.82;;;;;;;;;;6273826;22;20164;-68
2022/08/15 06:33:14;;;;;;;4.53;3.17;;;;;;;;;;6272485;22;20167;-70
2022/08/15 06:35:54;;;;;;;6.28;3.90;;;;;;;;;;6272113;22;20500;-69
2022/08/15 06:38:29;;;;;;;3.70;3.28;;;;;;;;;;6273187;22;20627;-69
2022/08/15 06:40:58;;;;;;;4.68;3.13;;;;;;;;;;6273382;22;20152;-69
2022/08/15 06:43:23;;;;;;;4.75;3.38;;;;;;;;;;6274367;22;20190;-69
2022/08/15 06:45:49;;;;;;;3.25;2.83;;;;;;;;;;6274005;22;20145;-69
2022/08/15 06:48:16;;;;;;;8.35;3.80;;;;;;;;;;6273366;22;20237;-69
2022/08/15 06:50:47;;;;;;;3.63;3.33;;;;;;;;;;6272854;22;20172;-69
2022/08/15 06:53:35;;;;;;;5.70;3.47;;;;;;;;;;6272467;22;20153;-69
2022/08/15 06:56:09;;;;;;;7.68;3.78;;;;;;;;;;6273994;22;20154;-69
2022/08/15 06:58:34;;;;;;;7.13;4.22;;;;;;;;;;6273091;22;20615;-69
2022/08/15 07:01:09;;;;;;;3.95;3.40;;;;;;;;;;6273389;22;20152;-69
2022/08/15 07:03:42;;;;;;;4.10;3.70;;;;;;;;;;6297961;22;20141;-69
2022/08/15 07:06:10;;;;;;;4.38;3.10;;;;;;;;;;6272725;22;20144;-69
2022/08/15 07:08:40;;;;;;;5.45;3.38;;;;;;;;;;6273312;22;20241;-69
2022/08/15 07:11:12;;;;;;;4.88;3.10;;;;;;;;;;6272633;22;20242;-69
2022/08/15 07:13:40;;;;;;;4.50;3.20;;;;;;;;;;6273705;22;20183;-69
2022/08/15 07:16:12;;;;;;;5.30;3.35;;;;;;;;;;6296148;22;20149;-69
2022/08/15 07:18:39;;;;;;;4.47;3.47;;;;;;;;;;6273248;22;20222;-69
2022/08/15 07:21:05;;;;;;;5.43;4.00;;;;;;;;;;6273132;22;20160;-69
2022/08/15 07:23:30;;;;;;;3.33;3.03;;;;;;;;;;6273540;22;20156;-69
2022/08/15 07:26:00;;;;;;;3.55;3.25;;;;;;;;;;6272468;22;20176;-69
2022/08/15 07:28:27;;;;;;;4.95;3.30;;;;;;;;;;6273737;22;20194;-69
2022/08/15 07:31:09;;;;;;;5.10;3.20;;;;;;;;;;6272304;22;20507;-68
2022/08/15 07:33:37;;;;;;;7.30;3.22;;;;;;;;;;6273253;22;20516;-68
2022/08/15 07:36:13;;;;;;;5.80;3.70;;;;;;;;;;6272811;22;20190;-68
2022/08/15 07:38:38;;;;;;;3.90;3.50;;;;;;;;;;6271141;22;20164;-68
2022/08/15 07:41:12;;;;;;;5.15;3.33;;;;;;;;;;6272200;22;20243;-68
2022/08/15 07:43:38;;;;;;;6.35;3.50;;;;;;;;;;6273342;22;20160;-69
2022/08/15 07:46:10;;;;;;;4.85;3.40;;;;;;;;;;6272982;22;20165;-68
2022/08/15 07:48:36;;;;;;;7.53;3.70;;;;;;;;;;6272970;22;20267;-69
2022/08/15 07:51:13;;;;;;;4.57;3.20;;;;;;;;;;6272191;22;20211;-69
2022/08/15 07:53:48;;;;;;;4.70;2.75;;;;;;;;;;6273425;22;20140;-69
2022/08/15 07:56:15;;;;;;;8.25;3.72;;;;;;;;;;6273202;22;20630;-69
2022/08/15 07:58:41;;;;;;;7.57;3.60;;;;;;;;;;6272503;22;20259;-69
2022/08/15 08:01:12;;;;;;;7.88;3.80;;;;;;;;;;6271615;22;20151;-69
2022/08/15 08:03:38;;;;;;;5.40;4.45;;;;;;;;;;6271302;22;20546;-69
2022/08/15 08:06:06;;;;;;;5.97;3.30;;;;;;;;;;6272186;22;20152;-69
2022/08/15 08:08:38;;;;;;;7.90;3.40;;;;;;;;;;6271024;22;20226;-68
2022/08/15 08:11:06;;;;;;;4.43;3.13;;;;;;;;;;6271238;22;20171;-68
2022/08/15 08:13:34;;;;;;;3.78;2.90;;;;;;;;;;6272799;22;20145;-69
2022/08/15 08:16:12;;;;;;;4.85;3.28;;;;;;;;;;6272827;22;20147;-69
2022/08/15 08:18:41;;;;;;;4.22;3.75;;;;;;;;;;6272097;22;20352;-69
2022/08/15 08:21:11;;;;;;;5.65;3.80;;;;;;;;;;6272430;22;20156;-69
2022/08/15 08:23:45;;;;;;;11.35;4.05;;;;;;;;;;6272132;22;20522;-69
2022/08/15 08:26:24;;;;;;;6.85;4.47;;;;;;;;;;6272299;22;20143;-69
2022/08/15 08:28:52;;;;;;;6.55;4.00;;;;;;;;;;6272433;22;20210;-69
2022/08/15 08:31:26;;;;;;;5.72;4.50;;;;;;;;;;6272198;22;20172;-69
2022/08/15 08:34:17;;;;;;;7.97;5.32;;;;;;;;;;6273176;22;20145;-69
2022/08/15 08:37:02;;;;;;;10.13;4.70;;;;;;;;;;6273494;22;20471;-69
2022/08/15 08:39:34;;;;;;;6.50;5.18;;;;;;;;;;6272014;22;20532;-69
2022/08/15 08:42:10;;;;;;;6.95;4.32;;;;;;;;;;6271921;22;20144;-68
2022/08/15 08:44:38;;;;;;;6.80;4.55;;;;;;;;;;6271659;22;20145;-69
2022/08/15 08:47:16;;;;;;;4.95;4.45;;;;;;;;;;6271915;22;20141;-69
2022/08/15 08:49:47;;;;;;;6.00;3.92;;;;;;;;;;6272057;22;20662;-68
2022/08/15 08:52:15;;;;;;;5.35;4.82;;;;;;;;;;6271950;22;20140;-69
2022/08/15 08:54:59;;;;;;;9.35;4.78;;;;;;;;;;6271986;22;20219;-69
2022/08/15 08:57:28;;;;;;;5.25;4.75;;;;;;;;;;6271782;22;20259;-68
2022/08/15 09:00:09;;;;;;;5.50;4.78;;;;;;;;;;6271701;22;20595;-68
2022/08/15 09:02:37;;;;;;;5.72;4.90;;;;;;;;;;6271607;22;20177;-68
2022/08/15 09:05:08;;;;;;;6.03;5.32;;;;;;;;;;6270697;22;20160;-68
2022/08/15 09:07:39;;;;;;;6.78;6.18;;;;;;;;;;6272158;22;20187;-69
2022/08/15 09:10:06;;;;;;;8.77;7.22;;;;;;;;;;6272231;22;20259;-69
2022/08/15 09:15:21;;;;;;;8.35;7.28;;;;;;;;;;6271556;22;20590;-69
2022/08/15 09:18:13;;;;;;;8.07;6.88;;;;;;;;;;6271578;22;20766;-70
2022/08/15 09:20:39;;;;;;;9.98;8.57;;;;;;;;;;6264655;22;20149;-69
2022/08/15 09:23:08;;;;;;;11.70;8.20;;;;;;;;;;6271806;22;20156;-69
2022/08/15 09:25:35;;;;;;;8.80;7.65;;;;;;;;;;6270856;22;20227;-69
2022/08/15 09:28:09;;;;;;;9.10;8.20;;;;;;;;;;6271802;22;20578;-69
2022/08/15 09:30:35;;;;;;;13.10;8.95;;;;;;;;;;6272226;22;20186;-69
2022/08/15 09:33:15;;;;;;;11.48;8.63;;;;;;;;;;6273575;22;20148;-69
2022/08/15 09:35:46;;;;;;;10.65;8.10;;;;;;;;;;6272863;22;20187;-69
2022/08/15 09:38:23;;;;;;;9.55;8.57;;;;;;;;;;6274069;22;20164;-69
2022/08/15 09:41:00;;;;;;;10.45;8.75;;;;;;;;;;6272855;22;20144;-69
2022/08/15 09:43:25;;;;;;;9.85;8.85;;;;;;;;;;6271858;22;20164;-69
2022/08/15 09:46:07;;;;;;;9.83;9.03;;;;;;;;;;6273910;22;20170;-69
2022/08/15 09:48:51;;;;;;;11.18;9.15;;;;;;;;;;6273694;22;20251;-69
2022/08/15 09:51:43;;;;;;;9.45;8.50;;;;;;;;;;6272414;22;20599;-69
2022/08/15 09:54:15;;;;;;;11.95;8.60;;;;;;;;;;6226320;22;20156;-69
2022/08/15 09:56:41;;;;;;;10.43;9.38;;;;;;;;;;6297309;22;20148;-69
2022/08/15 09:59:15;;;;;;;11.93;10.70;;;;;;;;;;6272392;22;20184;-69
2022/08/15 10:01:49;;;;;;;10.98;9.88;;;;;;;;;;6272954;22;20204;-68
2022/08/15 10:04:17;;;;;;;12.38;11.25;;;;;;;;;;6272854;22;20257;-68
2022/08/15 10:07:01;;;;;;;11.80;10.77;;;;;;;;;;6273900;22;20176;-68
2022/08/15 10:09:32;;;;;;;14.00;11.13;;;;;;;;;;6274209;22;20174;-68
2022/08/15 10:12:06;;;;;;;12.93;11.63;;;;;;;;;;6273060;22;20179;-68
2022/08/15 10:14:42;;;;;;;12.40;10.90;;;;;;;;;;6274100;22;20198;-68
2022/08/15 10:17:27;;;;;;;12.65;11.38;;;;;;;;;;6273013;22;20144;-68
2022/08/15 10:19:52;;;;;;;14.20;12.73;;;;;;;;;;6273867;22;20322;-68
2022/08/15 10:22:21;;;;;;;14.25;12.85;;;;;;;;;;6273172;22;20245;-69
2022/08/15 10:25:06;;;;;;;15.63;12.15;;;;;;;;;;6273601;22;20228;-68
2022/08/15 10:27:51;;;;;;;12.38;11.10;;;;;;;;;;6271422;22;20214;-68
2022/08/15 10:30:17;;;;;;;12.10;10.77;;;;;;;;;;6273177;22;20566;-68
2022/08/15 10:32:42;;;;;;;11.35;10.23;;;;;;;;;;6271004;22;20160;-68
2022/08/15 10:35:27;;;;;;;13.27;11.88;;;;;;;;;;6273153;22;20484;-68
2022/08/15 10:37:58;;;;;;;13.15;10.55;;;;;;;;;;6273299;22;20203;-68
2022/08/15 10:40:23;;;;;;;12.35;11.18;;;;;;;;;;6273631;22;20152;-69
2022/08/15 10:43:01;;;;;;;12.63;11.33;;;;;;;;;;6273029;22;20290;-68
2022/08/15 10:45:36;;;;;;;15.02;12.88;;;;;;;;;;6273885;22;20151;-67
2022/08/15 10:48:24;;;;;;;12.20;10.75;;;;;;;;;;6273262;22;20175;-68
2022/08/15 10:51:08;;;;;;;11.32;10.20;;;;;;;;;;6272899;22;20163;-68
2022/08/15 10:53:47;;;;;;;17.23;12.30;;;;;;;;;;6273513;22;20623;-68
2022/08/15 10:56:16;;;;;;;13.80;12.00;;;;;;;;;;6271077;22;20151;-68
2022/08/15 10:58:41;;;;;;;13.35;12.07;;;;;;;;;;6274639;22;20253;-74
2022/08/15 11:01:17;;;;;;;14.68;13.13;;;;;;;;;;6272851;22;20160;-72
2022/08/15 11:03:46;;;;;;;12.32;11.23;;;;;;;;;;6274136;22;20144;-72
2022/08/15 11:06:13;;;;;;;12.77;11.52;;;;;;;;;;6275590;22;20155;-73
2022/08/15 11:08:44;;;;;;;15.50;12.23;;;;;;;;;;6273247;22;20168;-73
2022/08/15 11:11:10;;;;;;;12.30;11.20;;;;;;;;;;6275222;22;20176;-73
2022/08/15 11:13:37;;;;;;;13.77;11.05;;;;;;;;;;6273329;22;20181;-73
2022/08/15 11:16:10;;;;;;;11.85;9.23;;;;;;;;;;6275393;22;20464;-73
2022/08/15 11:18:38;;;;;;;10.55;9.20;;;;;;;;;;6275007;22;20537;-73
2022/08/15 11:21:15;;;;;;;10.80;9.05;;;;;;;;;;6275011;22;20217;-73
2022/08/15 11:23:42;;;;;;;9.68;8.73;;;;;;;;;;6299373;22;20202;-73
2022/08/15 11:26:08;;;;;;;10.05;8.70;;;;;;;;;;6275237;22;20199;-73
2022/08/15 11:28:33;;;;;;;11.68;9.05;;;;;;;;;;6275017;22;20175;-73
2022/08/15 11:31:00;;;;;;;9.70;8.30;;;;;;;;;;6274725;22;20179;-73
2022/08/15 11:33:27;;;;;;;9.95;7.30;;;;;;;;;;6274697;22;20400;-73
2022/08/15 11:36:06;;;;;;;11.65;8.68;;;;;;;;;;6275131;22;20230;-73
2022/08/15 11:38:34;;;;;;;9.18;8.23;;;;;;;;;;6275108;22;20159;-73
2022/08/15 11:40:59;;;;;;;14.48;7.80;;;;;;;;;;6273313;22;20163;-73
2022/08/15 11:43:25;;;;;;;9.35;8.43;;;;;;;;;;6274730;22;20231;-72
2022/08/15 11:45:51;;;;;;;13.30;9.07;;;;;;;;;;6275456;22;20145;-73
2022/08/15 11:48:21;;;;;;;9.55;8.45;;;;;;;;;;6274979;22;20172;-73
2022/08/15 11:51:18;;;;;;;10.00;8.88;;;;;;;;;;6274425;22;20198;-73
2022/08/15 11:54:03;;;;;;;11.63;9.75;;;;;;;;;;6206295;22;20149;-71
2022/08/15 11:56:47;;;;;;;10.85;9.73;;;;;;;;;;6275192;22;20160;-72
2022/08/15 11:59:19;;;;;;;10.38;9.38;;;;;;;;;;6274280;22;20218;-72
2022/08/15 12:01:58;;;;;;;10.35;9.30;;;;;;;;;;6274000;22;20140;-72
2022/08/15 12:04:27;;;;;;;11.35;8.60;;;;;;;;;;6273300;22;20148;-72
2022/08/15 12:06:53;;;;;;;10.60;9.13;;;;;;;;;;6273769;22;20584;-73
2022/08/15 12:09:23;;;;;;;11.98;9.85;;;;;;;;;;6273496;22;20175;-72
2022/08/15 12:11:50;;;;;;;9.27;7.78;;;;;;;;;;6273754;22;20194;-71
2022/08/15 12:14:26;;;;;;;11.30;9.48;;;;;;;;;;6271837;22;20176;-72
2022/08/15 12:16:53;;;;;;;9.38;7.53;;;;;;;;;;6271940;22;20162;-72
2022/08/15 12:19:28;;;;;;;9.05;8.25;;;;;;;;;;6273709;22;20488;-72
2022/08/15 12:21:54;;;;;;;12.60;8.43;;;;;;;;;;6274002;22;20159;-72
2022/08/15 12:24:24;;;;;;;12.30;9.27;;;;;;;;;;6272928;22;20153;-72
2022/08/15 12:26:52;;;;;;;12.55;8.85;;;;;;;;;;6273620;22;20250;-73
2022/08/15 12:29:22;;;;;;;10.82;8.90;;;;;;;;;;6274724;22;20209;-75
2022/08/15 12:31:48;;;;;;;9.82;8.13;;;;;;;;;;6283355;22;20160;-76
2022/08/15 12:34:22;;;;;;;11.88;8.70;;;;;;;;;;6278877;22;20505;-74
2022/08/15 12:36:47;;;;;;;9.35;8.45;;;;;;;;;;6281030;22;20611;-76
2022/08/15 12:39:13;;;;;;;9.73;7.93;;;;;;;;;;6280912;22;20175;-75
2022/08/15 12:41:40;;;;;;;10.23;9.32;;;;;;;;;;6282734;22;20145;-75
2022/08/15 12:44:06;;;;;;;9.88;8.88;;;;;;;;;;6282703;22;20169;-75
2022/08/15 12:46:32;;;;;;;10.10;9.10;;;;;;;;;;6281117;22;20152;-74
2022/08/15 12:48:58;;;;;;;10.88;9.77;;;;;;;;;;6282589;22;20191;-74
2022/08/15 12:51:23;;;;;;;10.65;9.55;;;;;;;;;;6282648;22;20604;-74
2022/08/15 12:53:48;;;;;;;13.05;10.75;;;;;;;;;;6282321;22;20136;-75
2022/08/15 12:56:17;;;;;;;11.77;10.50;;;;;;;;;;6282720;22;20155;-75
2022/08/15 12:58:42;;;;;;;11.63;10.45;;;;;;;;;;6282831;22;20560;-72
2022/08/15 13:01:08;;;;;;;11.60;10.40;;;;;;;;;;6282876;22;20148;-74
2022/08/15 13:03:34;;;;;;;11.60;10.45;;;;;;;;;;6282691;22;20608;-74
2022/08/15 13:05:59;;;;;;;12.05;10.82;;;;;;;;;;6282398;22;20141;-74
2022/08/15 13:08:24;;;;;;;11.65;9.82;;;;;;;;;;6283130;22;20196;-74
2022/08/15 13:10:50;;;;;;;11.85;10.63;;;;;;;;;;6282934;22;20634;-74
2022/08/15 13:13:16;;;;;;;12.68;11.07;;;;;;;;;;6283349;22;20140;-75
2022/08/15 13:15:42;;;;;;;14.38;11.85;;;;;;;;;;6282683;22;20491;-73
2022/08/15 13:18:08;;;;;;;13.65;11.93;;;;;;;;;;6283188;22;20164;-74
2022/08/15 13:23:39;;;;;;;12.75;11.30;;;;;;;;;;6283869;22;20300;-75
2022/08/15 13:26:08;;;;;;;12.73;11.52;;;;;;;;;;6282616;22;20139;-74
2022/08/15 13:28:33;;;;;;;12.98;11.65;;;;;;;;;;6281060;22;20168;-73
2022/08/15 13:30:58;;;;;;;13.18;11.88;;;;;;;;;;6282492;22;20199;-73
2022/08/15 13:33:24;;;;;;;12.20;10.98;;;;;;;;;;6283000;22;20149;-73
2022/08/15 13:35:50;;;;;;;12.63;11.43;;;;;;;;;;6282549;22;20149;-74
2022/08/15 13:38:15;;;;;;;14.17;12.50;;;;;;;;;;6282892;22;20249;-74
2022/08/15 13:40:40;;;;;;;12.23;10.82;;;;;;;;;;6282782;22;20384;-74
2022/08/15 13:43:06;;;;;;;11.85;10.40;;;;;;;;;;6283007;22;20169;-74
2022/08/15 13:45:32;;;;;;;13.25;11.95;;;;;;;;;;6282511;22;20144;-75
2022/08/15 13:47:57;;;;;;;14.75;11.63;;;;;;;;;;6282766;22;20164;-73
2022/08/15 13:50:24;;;;;;;12.55;10.68;;;;;;;;;;6281979;22;20520;-74
2022/08/15 13:52:50;;;;;;;11.32;9.93;;;;;;;;;;6282090;22;20493;-75
2022/08/15 13:55:15;;;;;;;14.85;12.55;;;;;;;;;;6282682;22;20291;-74
2022/08/15 13:57:42;;;;;;;14.52;13.00;;;;;;;;;;6283708;22;20180;-74
2022/08/15 14:00:10;;;;;;;16.50;12.18;;;;;;;;;;6284263;22;20561;-75
2022/08/15 14:02:37;;;;;;;12.90;11.65;;;;;;;;;;6284171;22;20148;-73
2022/08/15 14:05:03;;;;;;;14.27;12.45;;;;;;;;;;6284401;22;20180;-74
2022/08/15 14:07:29;;;;;;;13.60;11.68;;;;;;;;;;6282332;22;20498;-74
2022/08/15 14:09:54;;;;;;;13.57;12.35;;;;;;;;;;6282516;22;20291;-74
2022/08/15 14:12:19;;;;;;;16.38;13.10;;;;;;;;;;6283786;22;20148;-75
2022/08/15 14:14:45;;;;;;;13.35;11.98;;;;;;;;;;6283578;22;20220;-75
2022/08/15 14:17:11;;;;;;;12.48;11.32;;;;;;;;;;6284147;22;20145;-74
2022/08/15 14:19:38;;;;;;;13.52;11.32;;;;;;;;;;6284710;22;20153;-74
2022/08/15 14:22:05;;;;;;;15.20;10.85;;;;;;;;;;6285581;22;20243;-73
2022/08/15 14:24:31;;;;;;;15.32;12.52;;;;;;;;;;6285610;22;20253;-74
2022/08/15 14:26:56;;;;;;;12.63;11.43;;;;;;;;;;6285917;22;20484;-74
2022/08/15 14:29:25;;;;;;;16.05;12.15;;;;;;;;;;6285951;22;20615;-73
2022/08/15 14:31:50;;;;;;;15.25;13.75;;;;;;;;;;6284134;22;20180;-74
2022/08/15 14:34:16;;;;;;;17.60;11.32;;;;;;;;;;6286294;22;20198;-75
2022/08/15 14:36:42;;;;;;;15.38;12.98;;;;;;;;;;6285681;22;20162;-75
2022/08/15 14:39:07;;;;;;;13.60;12.35;;;;;;;;;;6285753;22;20222;-75
2022/08/15 14:41:33;;;;;;;14.43;12.90;;;;;;;;;;6285366;22;20145;-75
2022/08/15 14:43:58;;;;;;;14.35;12.25;;;;;;;;;;6285788;22;20148;-74